createdAt,value
2023-05-03T00:00:15.737Z,21.40
2023-05-03T00:02:44.088Z,21.40
2023-05-03T00:05:14.629Z,21.38
2023-05-03T00:07:42.764Z,21.39
2023-05-03T00:10:13.117Z,21.40
2023-05-03T00:12:40.073Z,21.41
2023-05-03T00:15:08.148Z,21.41
2023-05-03T00:17:38.593Z,21.41
2023-05-03T00:20:06.920Z,21.41
2023-05-03T00:22:33.732Z,21.39
2023-05-03T00:25:00.756Z,21.37
2023-05-03T00:27:28.393Z,21.36
2023-05-03T00:29:55.322Z,21.34
2023-05-03T00:32:22.273Z,21.33
2023-05-03T00:34:58.418Z,21.31
2023-05-03T00:37:25.807Z,21.29
2023-05-03T00:39:53.303Z,21.27
2023-05-03T00:42:20.197Z,21.26
2023-05-03T00:44:47.155Z,21.23
2023-05-03T00:47:15.407Z,21.21
2023-05-03T00:49:42.369Z,21.19
2023-05-03T00:52:09.612Z,21.17
2023-05-03T00:54:37.387Z,21.14
2023-05-03T00:57:04.337Z,21.12
2023-05-03T00:59:32.551Z,21.09
2023-05-03T01:01:59.796Z,21.00
2023-05-03T01:04:27.322Z,20.86
2023-05-03T01:07:06.156Z,20.95
2023-05-03T01:09:42.921Z,20.96
2023-05-03T01:12:35.372Z,20.93
2023-05-03T01:15:31.639Z,20.89
2023-05-03T01:18:02.603Z,20.84
2023-05-03T01:20:30.406Z,20.79
2023-05-03T01:22:57.558Z,20.76
2023-05-03T01:25:24.710Z,20.73
2023-05-03T01:27:51.710Z,20.70
2023-05-03T01:30:18.531Z,20.66
2023-05-03T01:33:10.435Z,20.65
2023-05-03T01:35:50.214Z,20.62
2023-05-03T01:38:17.036Z,20.60
2023-05-03T01:40:49.149Z,20.59
2023-05-03T01:43:16.564Z,20.56
2023-05-03T01:45:43.437Z,20.54
2023-05-03T01:48:12.575Z,20.51
2023-05-03T01:50:39.546Z,20.50
2023-05-03T01:53:06.311Z,20.49
2023-05-03T01:55:33.746Z,20.47
2023-05-03T01:58:00.688Z,20.45
2023-05-03T02:00:27.633Z,20.41
2023-05-03T02:02:54.447Z,20.38
2023-05-03T02:05:21.244Z,20.38
2023-05-03T02:07:48.034Z,20.37
2023-05-03T02:10:15.837Z,20.36
2023-05-03T02:12:43.496Z,20.35
2023-05-03T02:15:11.581Z,20.33
2023-05-03T02:17:39.763Z,20.30
2023-05-03T02:20:10.086Z,20.29
2023-05-03T02:22:36.822Z,20.28
2023-05-03T02:25:04.457Z,20.28
2023-05-03T02:27:31.321Z,20.29
2023-05-03T02:29:58.164Z,20.29
2023-05-03T02:32:25.736Z,20.29
2023-05-03T02:34:53.360Z,20.28
2023-05-03T02:37:20.569Z,20.28
2023-05-03T02:39:47.611Z,20.29
2023-05-03T02:42:14.752Z,20.30
2023-05-03T02:44:41.672Z,20.34
2023-05-03T02:47:09.153Z,20.38
2023-05-03T02:49:36.301Z,20.43
2023-05-03T02:52:03.099Z,20.47
2023-05-03T02:54:31.006Z,20.50
2023-05-03T02:56:58.981Z,20.56
2023-05-03T02:59:25.734Z,20.59
2023-05-03T03:01:53.614Z,20.65
2023-05-03T03:04:20.870Z,20.73
2023-05-03T03:06:47.987Z,20.84
2023-05-03T03:09:16.016Z,20.93
2023-05-03T03:11:43.233Z,21.00
2023-05-03T03:14:10.037Z,21.07
2023-05-03T03:16:37.305Z,21.16
2023-05-03T03:19:04.179Z,21.26
2023-05-03T03:21:32.207Z,21.33
2023-05-03T03:23:58.985Z,21.40
2023-05-03T03:26:26.153Z,21.45
2023-05-03T03:28:53.107Z,21.48
2023-05-03T03:31:22.484Z,21.49
2023-05-03T03:33:50.044Z,21.52
2023-05-03T03:36:17.125Z,21.57
2023-05-03T03:38:44.447Z,21.63
2023-05-03T03:41:11.502Z,21.74
2023-05-03T03:43:38.566Z,21.89
2023-05-03T03:46:06.599Z,22.06
2023-05-03T03:48:33.701Z,22.24
2023-05-03T03:51:00.625Z,22.47
2023-05-03T03:53:33.189Z,22.68
2023-05-03T03:56:01.603Z,22.90
2023-05-03T03:58:29.369Z,23.10
2023-05-03T04:00:56.203Z,23.27
2023-05-03T04:03:23.634Z,23.46
2023-05-03T04:05:51.629Z,23.68
2023-05-03T04:08:19.484Z,23.99
2023-05-03T04:10:46.523Z,24.34
2023-05-03T04:13:14.159Z,24.76
2023-05-03T04:15:41.250Z,25.25
2023-05-03T04:18:08.425Z,25.80
2023-05-03T04:20:37.283Z,26.40
2023-05-03T04:23:04.845Z,27.01
2023-05-03T04:25:33.021Z,27.60
2023-05-03T04:28:05.119Z,28.20
2023-05-03T04:30:35.171Z,28.78
2023-05-03T04:33:04.161Z,29.40
2023-05-03T04:35:33.823Z,30.05
2023-05-03T04:38:03.729Z,30.69
2023-05-03T04:40:31.300Z,31.29
2023-05-03T04:43:04.997Z,31.83
2023-05-03T04:45:33.690Z,32.24
2023-05-03T04:48:01.418Z,32.67
2023-05-03T04:50:28.700Z,33.11
2023-05-03T04:52:55.578Z,33.56
2023-05-03T04:55:22.957Z,34.00
2023-05-03T04:59:05.714Z,33.45
2023-05-03T05:01:33.125Z,34.80
2023-05-03T05:04:01.744Z,35.26
2023-05-03T05:06:34.533Z,35.59
2023-05-03T05:09:02.308Z,35.92
2023-05-03T05:11:29.473Z,36.28
2023-05-03T05:13:57.650Z,36.67
2023-05-03T05:16:24.729Z,37.05
2023-05-03T05:18:52.883Z,37.35
2023-05-03T05:21:21.559Z,37.70
2023-05-03T05:23:48.537Z,38.05
2023-05-03T05:26:15.462Z,38.38
2023-05-03T05:28:43.220Z,38.75
2023-05-03T05:31:10.591Z,39.06
2023-05-03T05:33:37.614Z,39.31
2023-05-03T05:36:06.311Z,39.61
2023-05-03T05:38:34.002Z,39.88
2023-05-03T05:41:01.438Z,40.00
2023-05-03T05:43:28.896Z,40.14
2023-05-03T05:45:56.093Z,40.34
2023-05-03T05:48:23.305Z,40.61
2023-05-03T05:50:51.013Z,40.84
2023-05-03T05:53:17.916Z,41.00
2023-05-03T05:55:50.565Z,41.00
2023-05-03T05:58:17.955Z,41.06
2023-05-03T06:00:49.267Z,41.15
2023-05-03T06:03:17.053Z,41.24
2023-05-03T06:05:45.218Z,41.29
2023-05-03T06:08:13.011Z,41.25
2023-05-03T06:10:40.259Z,41.22
2023-05-03T06:13:07.437Z,41.10
2023-05-03T06:15:35.075Z,40.96
2023-05-03T06:18:02.216Z,40.88
2023-05-03T06:20:29.428Z,40.74
2023-05-03T06:22:56.965Z,40.45
2023-05-03T06:25:24.307Z,40.30
2023-05-03T06:27:51.380Z,40.23
2023-05-03T06:30:21.344Z,40.10
2023-05-03T06:32:49.500Z,39.98
2023-05-03T06:35:19.733Z,39.87
2023-05-03T06:37:47.135Z,39.84
2023-05-03T06:40:14.258Z,39.80
2023-05-03T06:42:41.229Z,39.68
2023-05-03T06:45:14.616Z,39.58
2023-05-03T06:47:43.143Z,39.41
2023-05-03T06:50:11.010Z,39.23
2023-05-03T06:52:38.216Z,39.05
2023-05-03T06:55:06.394Z,38.80
2023-05-03T06:57:33.347Z,38.39
2023-05-03T07:00:00.441Z,37.93
2023-05-03T07:02:27.596Z,37.46
2023-05-03T07:04:54.800Z,37.07
2023-05-03T07:07:21.918Z,36.75
2023-05-03T07:09:49.746Z,36.47
2023-05-03T07:12:16.693Z,36.30
2023-05-03T07:14:43.736Z,36.16
2023-05-03T07:17:10.662Z,36.16
2023-05-03T07:19:38.717Z,36.02
2023-05-03T07:22:05.691Z,35.84
2023-05-03T07:24:32.845Z,35.76
2023-05-03T07:26:59.631Z,35.77
2023-05-03T07:29:27.758Z,35.85
2023-05-03T07:31:54.859Z,35.92
2023-05-03T07:34:21.988Z,35.93
2023-05-03T07:36:49.033Z,35.96
2023-05-03T07:39:15.991Z,35.92
2023-05-03T07:41:42.983Z,35.83
2023-05-03T07:44:10.093Z,35.74
2023-05-03T07:46:37.103Z,35.56
2023-05-03T07:49:05.055Z,35.39
2023-05-03T07:51:38.518Z,35.30
2023-05-03T07:54:05.612Z,35.26
2023-05-03T07:56:32.667Z,35.22
2023-05-03T07:59:08.542Z,35.21
2023-05-03T08:01:38.202Z,35.19
2023-05-03T08:04:06.647Z,34.97
2023-05-03T08:06:35.854Z,34.61
2023-05-03T08:09:04.979Z,34.27
2023-05-03T08:11:32.487Z,34.09
2023-05-03T08:13:59.441Z,33.98
2023-05-03T08:16:28.462Z,33.93
2023-05-03T08:18:55.445Z,33.91
2023-05-03T08:21:24.891Z,33.87
2023-05-03T08:23:52.107Z,33.77
2023-05-03T08:26:18.980Z,33.72
2023-05-03T08:28:45.820Z,33.66
2023-05-03T08:31:12.873Z,33.51
2023-05-03T08:33:40.211Z,33.38
2023-05-03T08:36:07.777Z,33.30
2023-05-03T08:38:35.030Z,33.27
2023-05-03T08:41:05.170Z,33.20
2023-05-03T08:43:32.320Z,33.10
2023-05-03T08:45:59.258Z,32.97
2023-05-03T08:48:26.293Z,32.79
2023-05-03T08:50:54.158Z,32.59
2023-05-03T08:53:21.114Z,32.43
2023-05-03T08:55:48.307Z,32.32
2023-05-03T08:58:15.214Z,32.12
2023-05-03T09:00:45.184Z,31.89
2023-05-03T09:03:13.332Z,31.75
2023-05-03T09:05:41.520Z,31.66
2023-05-03T09:08:13.179Z,31.62
2023-05-03T09:10:46.017Z,31.56
2023-05-03T09:13:13.002Z,31.51
2023-05-03T09:15:40.049Z,31.41
2023-05-03T09:18:18.237Z,31.32
2023-05-03T09:20:52.023Z,31.25
2023-05-03T09:23:28.778Z,31.21
2023-05-03T09:25:56.056Z,31.16
2023-05-03T09:28:23.193Z,31.24
2023-05-03T09:30:50.523Z,31.30
2023-05-03T09:33:29.130Z,31.29
2023-05-03T09:35:57.410Z,31.24
2023-05-03T09:38:28.322Z,31.21
2023-05-03T09:40:55.167Z,31.20
2023-05-03T09:43:22.043Z,31.20
2023-05-03T09:45:49.041Z,31.20
2023-05-03T09:48:15.993Z,31.23
2023-05-03T09:50:43.026Z,31.28
2023-05-03T09:53:09.892Z,31.33
2023-05-03T09:55:39.154Z,31.40
2023-05-03T09:58:06.748Z,31.40
2023-05-03T10:00:40.762Z,31.42
2023-05-03T10:03:09.331Z,31.50
2023-05-03T10:05:48.892Z,31.59
2023-05-03T10:08:28.210Z,31.65
2023-05-03T10:10:55.325Z,31.66
2023-05-03T10:13:22.817Z,31.69
2023-05-03T10:15:53.073Z,31.67
2023-05-03T10:18:19.902Z,31.62
2023-05-03T10:20:52.768Z,31.64
2023-05-03T10:23:19.548Z,31.72
2023-05-03T10:26:13.585Z,31.83
2023-05-03T10:28:40.585Z,31.88
2023-05-03T10:31:29.160Z,31.90
2023-05-03T10:34:01.077Z,31.89
2023-05-03T10:36:38.337Z,31.89
2023-05-03T10:39:15.343Z,31.92
2023-05-03T10:41:44.128Z,31.97
2023-05-03T10:44:34.854Z,32.01
2023-05-03T10:47:17.407Z,32.09
2023-05-03T10:49:44.699Z,32.13
2023-05-03T10:52:39.651Z,32.13
2023-05-03T10:55:14.685Z,32.11
2023-05-03T10:57:42.848Z,32.12
2023-05-03T11:00:16.451Z,32.11
2023-05-03T11:03:04.324Z,32.12
2023-05-03T11:05:31.330Z,32.14
2023-05-03T11:08:19.348Z,32.05
2023-05-03T11:10:46.877Z,31.98
2023-05-03T11:13:14.155Z,31.99
2023-05-03T11:15:41.085Z,32.05
2023-05-03T11:18:08.368Z,32.11
2023-05-03T11:20:36.456Z,32.07
2023-05-03T11:23:04.241Z,32.03
2023-05-03T11:25:31.088Z,31.97
2023-05-03T11:27:57.864Z,31.93
2023-05-03T11:30:24.841Z,31.87
2023-05-03T11:32:51.730Z,31.90
2023-05-03T11:35:19.425Z,31.97
2023-05-03T11:37:46.220Z,32.07
2023-05-03T11:40:19.691Z,32.18
2023-05-03T11:42:59.875Z,32.29
2023-05-03T11:45:32.173Z,32.50
2023-05-03T11:47:59.536Z,32.49
2023-05-03T11:50:48.403Z,32.50
2023-05-03T11:53:15.618Z,32.51
2023-05-03T11:55:43.960Z,32.56
2023-05-03T11:58:29.013Z,32.66
2023-05-03T12:00:57.227Z,32.75
2023-05-03T12:03:28.890Z,32.75
2023-05-03T12:05:57.654Z,32.68
2023-05-03T12:08:30.902Z,32.64
2023-05-03T12:10:59.854Z,32.58
2023-05-03T12:13:30.646Z,32.51
2023-05-03T12:16:11.551Z,32.49
2023-05-03T12:18:52.430Z,32.49
2023-05-03T12:23:55.862Z,32.44
2023-05-03T12:26:26.732Z,32.51
2023-05-03T12:28:56.166Z,32.57
2023-05-03T12:31:23.918Z,32.58
2023-05-03T12:36:25.910Z,32.43
2023-05-03T12:38:56.203Z,32.44
2023-05-03T12:43:58.609Z,32.49
2023-05-03T12:46:34.594Z,32.44
2023-05-03T12:49:06.407Z,32.42
2023-05-03T12:51:34.381Z,32.43
2023-05-03T12:54:02.190Z,32.40
2023-05-03T12:56:32.830Z,32.36
2023-05-03T13:04:34.458Z,32.42
2023-05-03T13:06:47.764Z,32.41
2023-05-03T13:11:48.312Z,32.39
2023-05-03T13:14:16.444Z,32.44
2023-05-03T13:16:44.311Z,32.54
2023-05-03T13:19:14.338Z,32.59
2023-05-03T13:21:54.140Z,32.55
2023-05-03T13:24:21.075Z,32.62
2023-05-03T13:26:47.953Z,32.67
2023-05-03T13:29:14.790Z,32.66
2023-05-03T13:31:41.874Z,32.65
2023-05-03T13:34:08.809Z,32.62
2023-05-03T13:36:35.910Z,32.58
2023-05-03T13:39:02.948Z,32.52
2023-05-03T13:41:29.796Z,32.47
2023-05-03T13:43:56.743Z,32.44
2023-05-03T13:46:24.299Z,32.43
2023-05-03T13:48:53.015Z,32.41
2023-05-03T13:51:19.991Z,32.38
2023-05-03T13:53:47.180Z,32.32
2023-05-03T13:56:14.364Z,32.24
2023-05-03T13:58:41.586Z,32.17
2023-05-03T14:01:08.725Z,32.12
2023-05-03T14:03:35.893Z,32.10
2023-05-03T14:06:03.215Z,32.08
2023-05-03T14:08:30.311Z,32.03
2023-05-03T14:10:57.245Z,31.97
2023-05-03T14:13:24.956Z,31.92
2023-05-03T14:15:52.064Z,31.85
2023-05-03T14:18:19.278Z,31.76
2023-05-03T14:20:47.074Z,31.71
2023-05-03T14:23:13.881Z,31.66
2023-05-03T14:25:41.237Z,31.65
2023-05-03T14:28:08.102Z,31.63
2023-05-03T14:30:35.326Z,31.62
2023-05-03T14:33:03.054Z,31.59
2023-05-03T14:35:30.600Z,31.57
2023-05-03T14:37:57.501Z,31.56
2023-05-03T14:40:24.684Z,31.52
2023-05-03T14:42:51.671Z,31.48
2023-05-03T14:45:18.715Z,31.49
2023-05-03T14:47:46.247Z,31.48
2023-05-03T14:50:13.765Z,31.49
2023-05-03T14:52:40.732Z,31.48
2023-05-03T14:55:08.789Z,31.41
2023-05-03T14:57:36.457Z,31.35
2023-05-03T15:00:05.115Z,31.33
2023-05-03T15:02:32.396Z,31.33
2023-05-03T15:05:00.106Z,31.31
2023-05-03T15:07:27.220Z,31.29
2023-05-03T15:09:54.247Z,31.23
2023-05-03T15:12:21.816Z,31.20
2023-05-03T15:14:49.703Z,31.18
2023-05-03T15:17:16.872Z,31.17
2023-05-03T15:19:43.881Z,31.13
2023-05-03T15:22:10.995Z,31.13
2023-05-03T15:24:37.965Z,31.13
2023-05-03T15:27:05.065Z,31.13
2023-05-03T15:29:32.180Z,31.11
2023-05-03T15:31:59.789Z,31.13
2023-05-03T15:34:27.409Z,31.16
2023-05-03T15:36:54.548Z,31.16
2023-05-03T15:39:24.633Z,31.15
2023-05-03T15:41:54.587Z,31.14
2023-05-03T15:44:24.345Z,31.11
2023-05-03T15:46:54.680Z,31.07
2023-05-03T15:49:25.677Z,31.03
2023-05-03T15:51:55.011Z,30.92
2023-05-03T15:54:24.570Z,30.84
2023-05-03T15:56:55.712Z,30.80
2023-05-03T15:59:25.076Z,30.75
2023-05-03T16:01:54.789Z,30.69
2023-05-03T16:04:25.797Z,30.66
2023-05-03T16:06:55.440Z,30.63
2023-05-03T16:09:24.182Z,30.59
2023-05-03T16:11:54.252Z,30.60
2023-05-03T16:14:25.764Z,30.59
2023-05-03T16:16:56.792Z,30.55
2023-05-03T16:19:27.762Z,30.50
2023-05-03T16:21:57.888Z,30.45
2023-05-03T16:24:28.510Z,30.40
2023-05-03T16:26:58.785Z,30.35
2023-05-03T16:29:29.309Z,30.29
2023-05-03T16:31:58.895Z,30.23
2023-05-03T16:34:28.740Z,30.17
2023-05-03T16:36:58.020Z,30.10
2023-05-03T16:47:02.618Z,29.77
2023-05-03T16:49:33.309Z,29.68
2023-05-03T16:52:01.253Z,29.60
2023-05-03T16:54:28.609Z,29.52
2023-05-03T16:56:56.166Z,29.43
2023-05-03T16:59:23.824Z,29.35
2023-05-03T17:01:51.185Z,29.25
2023-05-03T17:04:18.234Z,29.16
2023-05-03T17:06:45.287Z,29.06
2023-05-03T17:09:13.558Z,28.97
2023-05-03T17:11:40.652Z,28.89
2023-05-03T17:14:08.912Z,28.83
2023-05-03T17:17:24.194Z,27.67
2023-05-03T17:19:51.154Z,28.53
2023-05-03T17:22:18.055Z,28.54
2023-05-03T17:24:45.108Z,28.46
2023-05-03T17:27:12.163Z,28.39
2023-05-03T17:29:39.717Z,28.33
2023-05-03T17:32:06.773Z,28.26
2023-05-03T17:34:33.642Z,28.21
2023-05-03T17:37:00.667Z,28.15
2023-05-03T17:39:28.736Z,28.10
2023-05-03T17:41:55.676Z,28.06
2023-05-03T17:44:23.357Z,28.02
2023-05-03T17:46:52.259Z,27.96
2023-05-03T17:49:19.900Z,27.90
2023-05-03T17:51:46.858Z,27.83
2023-05-03T17:54:13.724Z,27.73
2023-05-03T17:56:40.745Z,27.66
2023-05-03T17:59:08.108Z,27.59
2023-05-03T18:01:35.495Z,27.54
2023-05-03T18:04:02.554Z,27.38
2023-05-03T18:06:29.767Z,26.94
2023-05-03T18:08:57.458Z,26.43
2023-05-03T18:11:24.498Z,26.04
2023-05-03T18:13:51.522Z,25.77
2023-05-03T18:16:18.917Z,25.58
2023-05-03T18:18:45.831Z,25.46
2023-05-03T18:21:12.868Z,25.36
2023-05-03T18:23:39.830Z,25.24
2023-05-03T18:26:08.570Z,25.11
2023-05-03T18:28:35.686Z,24.96
2023-05-03T18:31:03.968Z,24.73
2023-05-03T18:33:32.961Z,24.60
2023-05-03T18:35:59.781Z,24.48
2023-05-03T18:38:27.126Z,24.34
2023-05-03T18:40:55.980Z,24.21
2023-05-03T18:43:23.194Z,24.10
2023-05-03T18:45:50.081Z,23.98
2023-05-03T18:48:17.404Z,23.86
2023-05-03T18:50:44.436Z,23.84
2023-05-03T18:53:11.472Z,23.78
2023-05-03T18:55:38.358Z,23.66
2023-05-03T18:58:05.580Z,23.58
2023-05-03T19:00:32.621Z,23.52
2023-05-03T19:03:00.250Z,23.44
2023-05-03T19:05:27.197Z,23.34
2023-05-03T19:07:54.112Z,23.26
2023-05-03T19:10:21.189Z,23.22
2023-05-03T19:12:48.253Z,23.19
2023-05-03T19:15:15.264Z,23.15
2023-05-03T19:17:42.696Z,23.11
2023-05-03T19:20:13.023Z,23.08
2023-05-03T19:22:40.058Z,23.05
2023-05-03T19:25:07.958Z,22.88
2023-05-03T19:27:34.966Z,22.73
2023-05-03T19:30:02.327Z,22.78
2023-05-03T19:32:33.529Z,22.84
2023-05-03T19:35:02.479Z,22.80
2023-05-03T19:37:29.477Z,22.71
2023-05-03T19:39:58.103Z,22.63
2023-05-03T19:42:25.053Z,22.61
2023-05-03T19:44:51.863Z,22.60
2023-05-03T19:47:19.050Z,22.57
2023-05-03T19:49:46.049Z,22.54
2023-05-03T19:52:12.850Z,22.51
2023-05-03T19:54:39.784Z,22.45
2023-05-03T19:57:07.677Z,22.42
2023-05-03T19:59:35.639Z,22.36
2023-05-03T20:02:03.430Z,22.30
2023-05-03T20:04:30.656Z,22.25
2023-05-03T20:06:57.544Z,22.23
2023-05-03T20:09:24.652Z,22.22
2023-05-03T20:11:56.307Z,22.24
2023-05-03T20:14:23.180Z,22.25
2023-05-03T20:16:50.085Z,22.24
2023-05-03T20:19:17.494Z,22.24
2023-05-03T20:21:45.052Z,22.24
2023-05-03T20:24:12.083Z,22.27
2023-05-03T20:26:39.215Z,22.29
2023-05-03T20:29:06.253Z,22.28
2023-05-03T20:31:33.220Z,22.25
2023-05-03T20:34:00.664Z,22.18
2023-05-03T20:36:28.247Z,22.09
2023-05-03T20:38:56.092Z,22.00
2023-05-03T20:41:23.361Z,21.94
2023-05-03T20:43:52.296Z,21.90
2023-05-03T20:46:19.411Z,21.84
2023-05-03T20:48:46.435Z,21.81
2023-05-03T20:51:13.487Z,21.82
2023-05-03T20:53:40.683Z,21.84
2023-05-03T20:56:08.273Z,21.86
2023-05-03T20:58:35.377Z,21.84
2023-05-03T21:01:07.014Z,21.81
2023-05-03T21:03:34.600Z,21.77
2023-05-03T21:06:01.580Z,21.73
2023-05-03T21:08:28.513Z,21.68
2023-05-03T21:10:55.650Z,21.65
2023-05-03T21:13:22.745Z,21.64
2023-05-03T21:15:51.244Z,21.59
2023-05-03T21:18:19.172Z,21.56
2023-05-03T21:20:46.529Z,21.54
2023-05-03T21:23:13.631Z,21.46
2023-05-03T21:25:40.671Z,21.33
2023-05-03T21:28:07.606Z,21.26
2023-05-03T21:30:34.689Z,21.23
2023-05-03T21:33:01.736Z,21.23
2023-05-03T21:35:28.975Z,21.22
2023-05-03T21:37:55.897Z,21.21
2023-05-03T21:40:22.903Z,21.20
2023-05-03T21:42:52.278Z,21.20
2023-05-03T21:45:19.666Z,21.18
2023-05-03T21:47:47.093Z,21.18
2023-05-03T21:50:14.342Z,21.19
2023-05-03T21:52:41.600Z,21.14
2023-05-03T21:55:08.858Z,21.07
2023-05-03T21:57:37.056Z,21.00
2023-05-03T22:00:06.007Z,20.93
2023-05-03T22:02:35.443Z,20.88
2023-05-03T22:05:02.706Z,20.83
2023-05-03T22:07:29.829Z,20.75
2023-05-03T22:09:56.806Z,20.69
2023-05-03T22:12:24.789Z,20.69
2023-05-03T22:14:53.171Z,20.72
2023-05-03T22:17:20.485Z,20.74
2023-05-03T22:19:47.533Z,20.74
2023-05-03T22:22:14.415Z,20.71
2023-05-03T22:24:41.718Z,20.65
2023-05-03T22:27:08.525Z,20.60
2023-05-03T22:29:35.425Z,20.58
2023-05-03T22:32:03.268Z,20.57
2023-05-03T22:34:30.438Z,20.57
2023-05-03T22:36:57.476Z,20.59
2023-05-03T22:39:24.364Z,20.58
2023-05-03T22:41:51.280Z,20.57
2023-05-03T22:44:18.249Z,20.59
2023-05-03T22:46:45.057Z,20.59
2023-05-03T22:49:12.074Z,20.60
2023-05-03T22:51:38.970Z,20.65
2023-05-03T22:54:05.980Z,20.70
2023-05-03T22:56:33.058Z,20.79
2023-05-03T22:58:59.943Z,20.78
2023-05-03T23:01:27.527Z,20.67
2023-05-03T23:03:54.802Z,20.56
2023-05-03T23:06:21.876Z,20.44
2023-05-03T23:08:49.225Z,20.38
2023-05-03T23:11:16.271Z,20.35
2023-05-03T23:13:43.420Z,20.32
2023-05-03T23:16:10.709Z,20.28
2023-05-03T23:18:38.029Z,20.23
2023-05-03T23:21:05.081Z,20.16
2023-05-03T23:23:32.042Z,19.93
2023-05-03T23:25:59.075Z,19.82
2023-05-03T23:28:26.748Z,19.78
2023-05-03T23:30:54.306Z,19.76
2023-05-03T23:33:21.752Z,19.85
2023-05-03T23:35:49.131Z,19.94
2023-05-03T23:38:16.531Z,19.98
2023-05-03T23:40:43.730Z,19.97
2023-05-03T23:43:10.523Z,20.00
2023-05-03T23:45:37.417Z,20.09
2023-05-03T23:48:05.156Z,20.16
2023-05-03T23:50:32.337Z,20.19
2023-05-03T23:52:59.705Z,20.16
2023-05-03T23:55:26.675Z,20.14
2023-05-03T23:57:53.682Z,20.12
